Flight Track Log - Related Links

Times and Time Zones

All times are in EDT time to prevent confusion due to time zone crossing. See the N400PU flight status page for this flight to view local times or setup timezone preferences in your user account.


Time Position Orientation Groundspeed Altitude Reporting Facility
EDT Latitude Longitude Course Direction KTS MPH feet Rate Location/Type
Tue 11:17:30 AM 40.4075 -86.9167 138° Southeast 177 204 1,500  Level Chicago Center
Tue 11:18:06 AM 40.3856 -86.8908 138° Southeast 186 214 3,200 2,969 Climbing Chicago Center
Tue 11:19:07 AM 40.3264 -86.9058 191° South 230 265 6,300 2,886 Climbing Chicago Center
Tue 11:19:25 AM 40.3086 -86.9131 197° South 270 311 7,000 2,550 Climbing Chicago Center
Tue 11:20:27 AM 40.2450 -86.9392 197° South 244 281 9,700 2,371 Climbing Chicago Center
Tue 11:21:29 AM 40.1806 -86.9633 196° South 243 280 11,900 1,887 Climbing Chicago Center
Tue 11:22:31 AM 40.1058 -86.9961 199° South 282 325 13,600 1,615 Climbing Chicago Center
Tue 11:22:47 AM 40.0700 -87.0064 192° South 277 319 14,000 308 Climbing Indianapolis Center
Tue 11:23:49 AM 39.9764 -87.0450 198° South 322 371 14,000  Level Indianapolis Center
Tue 11:24:51 AM 39.8761 -87.0883 198° South 360 414 14,000  Level Indianapolis Center
Tue 11:25:53 AM 39.7742 -87.1314 198° South 373 429 14,000  Level Indianapolis Center
Tue 11:26:55 AM 39.6722 -87.1725 197° South 380 437 14,000  Level Indianapolis Center
Tue 11:27:57 AM 39.5694 -87.2153 198° South 383 441 14,000  Level Indianapolis Center
Tue 11:28:59 AM 39.4661 -87.2547 196° South 385 443 14,000  Level Indianapolis Center
Tue 11:30:01 AM 39.3581 -87.2758 189° South 390 449 14,000 -290 Level Indianapolis Center
Tue 11:31:03 AM 39.2331 -87.2994 188° South 385 443 13,400 -726 Descending Indianapolis Center
Tue 11:32:05 AM 39.1319 -87.3186 188° South 376 433 12,500 -871 Descending Indianapolis Center
Tue 11:33:07 AM 39.0339 -87.3378 189° South 366 421 11,600 -726 Descending Indianapolis Center
Tue 11:34:09 AM 38.9361 -87.3581 189° South 360 414 11,000 -290 Descending Indianapolis Center
Tue 11:35:11 AM 38.8378 -87.3767 188° South 357 411 11,000  Level Indianapolis Center
Tue 11:36:13 AM 38.7383 -87.3961 189° South 358 412 11,000 -339 Level Indianapolis Center
Tue 11:37:15 AM 38.6178 -87.4189 188° South 363 418 10,300 -774 Descending Indianapolis Center
Tue 11:38:17 AM 38.5333 -87.4361 189° South 326 375 9,400 -1,403 Descending Indianapolis Center
Tue 11:39:19 AM 38.4592 -87.4503 189° South 291 335 7,400 -2,081 Descending Indianapolis Center
Tue 11:40:21 AM 38.3842 -87.4639 188° South 278 320 5,100 -1,355 Descending Indianapolis Center
Tue 11:41:23 AM 38.3122 -87.4778 189° South 271 312 4,600 -1,258 Descending Indianapolis Center
Tue 11:42:25 AM 38.2422 -87.4922 189° South 263 303 2,500 -1,016 Descending Indianapolis Center
Tue 11:43:27 AM 38.1717 -87.5053 188° South 231 266 2,500  Level Indianapolis Center
Tue 11:44:29 AM 38.1194 -87.5164 190° South 204 235 2,500 -290 Level Indianapolis Center
Tue 11:45:31 AM 38.0731 -87.5461 207° Southwest 200 230 1,900 -387 Descending Indianapolis Center
Tue 11:46:33 AM 38.0389 -87.5933 227° Southwest 187 215 1,700 -290 Descending Indianapolis Center
Tue 11:47:35 AM 38.0069 -87.5808 163° South 172 198 1,300 -339 Descending Indianapolis Center
Tue 11:48:37 AM 38.0228 -87.5286 69° East 161 185 1,000 -290 Descending Indianapolis Center

Login

Don't have an account? Register now (free) for customized features, flight alerts, and more!